Time;durP1;ratioP1;P1;durP2;ratioP2;P2;SDS_P1;SDS_P2;PMS_P1;PMS_P2;Temp;Humidity;BMP_temperature;BMP_pressure;BME280_temperature;BME280_humidity;BME280_pressure;Samples;Min_cycle;Max_cycle;Signal;HPM_P1;HPM_P2
2022/01/13 00:02:06;;;;;;;6.78;3.17;;;;;;;-17.27;64.22;99445.03;5058425;28;20736;-58
2022/01/13 00:04:32;;;;;;;9.60;4.70;;;;;;;-17.30;64.57;99452.75;5073209;28;20560;-57
2022/01/13 00:06:58;;;;;;;9.70;3.65;;;;;;;-17.25;63.83;99455.13;5072047;28;20186;-58
2022/01/13 00:09:23;;;;;;;16.52;5.50;;;;;;;-17.22;62.91;99448.22;5072969;28;20040;-58
2022/01/13 00:11:50;;;;;;;7.50;4.07;;;;;;;-17.16;62.14;99431.94;5073272;28;20051;-59
2022/01/13 00:17:06;;;;;;;5.70;2.85;;;;;;;-17.15;62.82;99415.03;5073270;28;20536;-57
2022/01/13 00:19:57;;;;;;;8.20;3.83;;;;;;;-17.07;62.69;99421.44;5070960;28;20040;-57
2022/01/13 00:22:47;;;;;;;4.07;3.45;;;;;;;-17.01;63.28;99405.16;5072173;28;20052;-57
2022/01/13 00:25:15;;;;;;;5.82;3.47;;;;;;;-16.99;63.05;99389.00;5072774;28;20097;-56
2022/01/13 00:27:47;;;;;;;7.63;3.70;;;;;;;-16.81;64.18;99384.84;5061578;28;20506;-57
2022/01/13 00:30:17;;;;;;;5.47;4.15;;;;;;;-16.80;63.57;99381.41;5067646;28;20133;-58
2022/01/13 00:32:44;;;;;;;9.35;3.38;;;;;;;-16.80;62.96;99381.41;5075462;28;20109;-57
2022/01/13 00:35:10;;;;;;;8.45;3.50;;;;;;;-16.68;63.50;99376.69;5057129;28;20512;-58
2022/01/13 00:37:37;;;;;;;8.57;4.32;;;;;;;-16.74;62.51;99367.63;5070056;28;20106;-58
2022/01/13 00:40:05;;;;;;;6.05;3.78;;;;;;;-16.75;63.62;99355.84;5054100;28;20048;-58
2022/01/13 00:42:32;;;;;;;9.45;4.25;;;;;;;-16.88;64.96;99349.66;5054207;28;20056;-57
2022/01/13 00:44:58;;;;;;;5.57;3.42;;;;;;;-16.75;65.13;99345.69;5036835;28;20041;-56
2022/01/13 00:47:24;;;;;;;10.40;3.47;;;;;;;-16.60;64.44;99334.88;5053929;28;20055;-57
2022/01/13 00:49:49;;;;;;;8.98;3.30;;;;;;;-16.51;63.75;99333.66;5067912;28;20395;-58
2022/01/13 00:52:15;;;;;;;5.25;3.13;;;;;;;-16.49;64.00;99329.34;5050859;28;20143;-59
2022/01/13 00:54:41;;;;;;;7.88;4.60;;;;;;;-16.53;63.03;99325.28;5064567;28;20090;-59
2022/01/13 00:57:07;;;;;;;8.10;3.53;;;;;;;-16.51;63.42;99318.41;5071509;28;20037;-59
2022/01/13 00:59:33;;;;;;;7.45;4.07;;;;;;;-16.43;63.77;99313.00;5071015;28;20056;-58
2022/01/13 01:01:59;;;;;;;9.07;3.53;;;;;;;-16.49;62.70;99301.44;5071898;28;20055;-59
2022/01/13 01:04:25;;;;;;;8.98;3.33;;;;;;;-16.57;63.36;99301.75;5071877;28;20056;-59
2022/01/13 01:06:51;;;;;;;9.60;3.90;;;;;;;-16.56;63.25;99308.47;5071374;28;20093;-59
2022/01/13 01:09:26;;;;;;;10.25;3.83;;;;;;;-16.59;62.73;99308.59;5071049;28;20045;-59
2022/01/13 01:11:55;;;;;;;10.93;3.75;;;;;;;-16.64;62.77;99302.94;5070263;28;20097;-58
2022/01/13 01:14:20;;;;;;;7.22;3.47;;;;;;;-16.58;64.28;99305.19;5054533;28;20036;-59
2022/01/13 01:16:46;;;;;;;13.27;3.85;;;;;;;-16.61;62.77;99294.38;5071816;28;20044;-59
2022/01/13 01:19:14;;;;;;;8.50;4.57;;;;;;;-16.55;62.91;99284.75;5070724;28;20170;-58
2022/01/13 01:26:43;;;;;;;6.15;3.45;;;;;;;-16.52;62.07;99266.88;5072061;28;20156;-59
2022/01/13 01:29:29;;;;;;;6.45;4.03;;;;;;;-16.49;61.90;99271.78;5070319;28;20106;-56
2022/01/13 01:31:56;;;;;;;18.70;4.57;;;;;;;-16.66;61.53;99281.06;5055793;28;20040;-57
2022/01/13 01:37:20;;;;;;;14.77;6.68;;;;;;;-16.78;63.44;99263.00;5070065;28;20155;-58
2022/01/13 01:39:48;;;;;;;14.85;5.75;;;;;;;-16.62;62.86;99262.25;5070246;28;20083;-58
2022/01/13 01:42:15;;;;;;;12.88;5.22;;;;;;;-16.53;63.61;99272.00;5071722;28;20048;-59
2022/01/13 01:44:44;;;;;;;14.00;5.20;;;;;;;-16.48;62.73;99286.13;5070381;28;20047;-58
2022/01/13 01:47:15;;;;;;;41.38;17.92;;;;;;;-16.57;62.51;99278.94;5070008;28;20052;-58
2022/01/13 01:49:44;;;;;;;31.65;12.18;;;;;;;-16.57;63.71;99278.94;5070690;28;20082;-59
2022/01/13 01:52:12;;;;;;;13.63;8.02;;;;;;;-16.57;62.83;99267.97;5069877;28;20509;-58
2022/01/13 01:54:38;;;;;;;15.70;7.53;;;;;;;-16.76;62.83;99268.00;5071289;28;20529;-58
2022/01/13 01:57:04;;;;;;;9.75;4.47;;;;;;;-16.78;62.85;99270.59;5071070;28;20044;-59
2022/01/13 01:59:33;;;;;;;12.52;6.15;;;;;;;-16.80;62.82;99267.31;5071180;28;20052;-58
2022/01/13 02:01:59;;;;;;;6.43;4.90;;;;;;;-16.82;63.09;99264.03;5070210;28;20051;-59
2022/01/13 02:04:26;;;;;;;14.50;4.85;;;;;;;-16.84;61.66;99290.34;5062279;28;20538;-59
2022/01/13 02:06:54;;;;;;;11.60;5.05;;;;;;;-16.71;62.78;99273.66;5033085;28;20493;-58
2022/01/13 02:09:21;;;;;;;11.57;4.63;;;;;;;-16.67;61.28;99266.72;5066235;28;20040;-57
2022/01/13 02:11:52;;;;;;;11.73;5.82;;;;;;;-16.66;61.65;99268.38;5071409;28;20107;-58
2022/01/13 02:16:55;;;;;;;6.15;4.13;;;;;;;-16.69;60.57;99260.91;5071583;28;20079;-59
2022/01/13 02:19:24;;;;;;;12.70;6.20;;;;;;;-16.73;60.35;99250.09;5071230;28;20069;-59
2022/01/13 02:21:50;;;;;;;12.52;4.07;;;;;;;-16.76;59.44;99257.88;5073152;28;20041;-58
2022/01/13 02:24:17;;;;;;;11.43;5.05;;;;;;;-16.49;61.28;99269.25;5073716;28;20060;-59
2022/01/13 02:26:43;;;;;;;10.43;6.03;;;;;;;-16.49;59.68;99264.19;5073752;28;20036;-57
2022/01/13 02:29:09;;;;;;;11.63;5.03;;;;;;;-16.31;59.93;99262.50;5058516;28;20041;-58
2022/01/13 02:31:34;;;;;;;14.27;5.57;;;;;;;-16.21;60.17;99252.75;5056819;28;20048;-58
2022/01/13 02:34:00;;;;;;;11.00;6.18;;;;;;;-16.11;59.34;99228.56;5074692;28;20132;-59
2022/01/13 02:36:27;;;;;;;11.60;5.60;;;;;;;-15.93;59.52;99219.25;5056716;28;20056;-59
2022/01/13 02:38:54;;;;;;;13.07;5.82;;;;;;;-15.77;59.94;99226.94;5040158;28;20139;-58
2022/01/13 02:41:24;;;;;;;15.38;5.43;;;;;;;-15.57;58.35;99208.13;5056846;28;20119;-58
2022/01/13 02:43:54;;;;;;;15.80;6.95;;;;;;;-15.71;59.02;99201.22;5073563;28;20044;-58
2022/01/13 02:49:08;;;;;;;16.23;6.22;;;;;;;-15.73;58.41;99237.75;5073206;28;20049;-57
2022/01/13 02:51:34;;;;;;;10.15;4.88;;;;;;;-15.98;59.47;99216.09;5073085;28;20413;-58
2022/01/13 02:54:00;;;;;;;14.93;7.82;;;;;;;-15.72;60.06;99201.31;5056493;28;20051;-59
2022/01/13 02:56:27;;;;;;;19.65;8.85;;;;;;;-15.75;60.14;99196.38;5073107;28;20183;-58
2022/01/13 02:58:52;;;;;;;17.90;5.70;;;;;;;-15.70;60.28;99205.41;5074302;28;20105;-58
2022/01/13 03:01:18;;;;;;;25.15;9.48;;;;;;;-15.53;60.25;99213.88;5073154;28;20040;-58
2022/01/13 03:03:45;;;;;;;18.42;8.05;;;;;;;-15.42;60.20;99237.03;5074280;28;20052;-60
2022/01/13 03:06:14;;;;;;;15.18;7.60;;;;;;;-15.39;60.71;99231.78;5072962;28;20098;-59
2022/01/13 03:08:46;;;;;;;26.48;8.65;;;;;;;-15.40;60.08;99227.63;5072511;28;20048;-59
2022/01/13 03:11:13;;;;;;;19.70;9.90;;;;;;;-15.48;59.71;99205.13;5073555;28;20123;-58
2022/01/13 03:13:39;;;;;;;26.73;9.40;;;;;;;-15.44;60.40;99203.22;5072715;28;20043;-59
2022/01/13 03:16:09;;;;;;;33.08;10.82;;;;;;;-15.34;60.48;99195.06;5073871;28;20494;-58
2022/01/13 03:18:35;;;;;;;;;;;;;;;-15.31;60.25;99203.44;5073487;28;20047;-58
2022/01/13 03:21:02;;;;;;;16.95;8.07;;;;;;;-15.25;59.87;99191.22;5072575;28;19927;-59
2022/01/13 03:23:28;;;;;;;19.98;6.88;;;;;;;-15.36;59.64;99179.06;5073818;28;20536;-59
2022/01/13 03:25:53;;;;;;;11.15;4.68;;;;;;;-15.32;59.34;99159.41;5074118;28;20040;-58
2022/01/13 03:28:29;;;;;;;9.85;4.82;;;;;;;-15.26;60.52;99148.09;5072439;28;20517;-60
2022/01/13 03:30:56;;;;;;;15.38;5.80;;;;;;;-15.28;59.68;99132.94;5055903;28;20139;-58
2022/01/13 03:33:23;;;;;;;14.35;5.88;;;;;;;-15.24;59.74;99138.66;5072788;28;20445;-58
2022/01/13 03:35:49;;;;;;;12.68;5.90;;;;;;;-15.15;60.60;99131.34;5073757;28;20401;-60
2022/01/13 03:38:15;;;;;;;13.40;4.72;;;;;;;-15.06;60.47;99116.53;5073628;28;20501;-58
2022/01/13 03:40:42;;;;;;;18.67;5.80;;;;;;;-14.97;61.44;99111.78;5073765;28;20048;-59
2022/01/13 03:43:08;;;;;;;9.57;5.32;;;;;;;-14.91;60.63;99126.69;5072113;28;20064;-59
2022/01/13 03:45:33;;;;;;;11.13;4.88;;;;;;;-14.86;60.86;99123.88;5073532;28;20063;-59
2022/01/13 03:48:00;;;;;;;14.32;5.55;;;;;;;-14.82;60.18;99114.34;5067220;28;20049;-58
2022/01/13 03:50:27;;;;;;;9.00;5.47;;;;;;;-14.71;60.19;99101.88;5047729;28;20040;-59
2022/01/13 03:53:02;;;;;;;7.93;4.75;;;;;;;-14.76;60.43;99086.88;5053187;28;20052;-59
2022/01/13 03:55:37;;;;;;;11.07;5.07;;;;;;;-14.79;61.34;99092.13;5053355;28;20037;-58
2022/01/13 03:58:11;;;;;;;10.05;5.38;;;;;;;-14.71;60.64;99077.25;5053452;28;20041;-58
2022/01/13 04:01:04;;;;;;;14.85;5.03;;;;;;;-14.61;61.11;99087.75;5053229;28;20045;-59
2022/01/13 04:03:30;;;;;;;14.00;5.15;;;;;;;-14.63;60.11;99059.00;5051902;28;20072;-58
2022/01/13 04:06:11;;;;;;;8.73;4.90;;;;;;;-14.63;60.39;99056.47;5051830;28;20529;-59
2022/01/13 04:08:38;;;;;;;13.18;4.55;;;;;;;-14.73;61.04;99057.91;5051596;28;20128;-58
2022/01/13 04:11:03;;;;;;;11.32;4.93;;;;;;;-14.76;61.18;99032.59;5053140;28;20048;-59
2022/01/13 04:16:20;;;;;;;19.05;6.22;;;;;;;-14.85;61.53;99063.66;5052901;28;20258;-59
2022/01/13 04:18:48;;;;;;;11.60;4.88;;;;;;;-14.90;61.73;99059.66;5052985;28;20045;-59
2022/01/13 04:21:14;;;;;;;9.82;5.55;;;;;;;-15.13;61.98;99045.66;5051299;28;20040;-57
2022/01/13 04:23:40;;;;;;;8.77;4.20;;;;;;;-15.35;62.07;99024.84;5068153;28;20041;-60
2022/01/13 04:26:07;;;;;;;9.93;4.57;;;;;;;-15.54;61.70;99021.66;5034827;28;20045;-57
2022/01/13 04:28:34;;;;;;;11.57;5.32;;;;;;;-15.84;62.75;99024.97;5034502;28;20053;-58
2022/01/13 04:31:02;;;;;;;15.30;4.78;;;;;;;-15.90;61.99;99015.94;5052577;28;20083;-58
2022/01/13 04:33:34;;;;;;;9.35;4.90;;;;;;;-16.14;61.85;98999.44;5051243;28;20068;-58
2022/01/13 04:36:00;;;;;;;11.70;5.05;;;;;;;-16.19;63.40;98988.69;5052216;28;20072;-59
2022/01/13 04:38:26;;;;;;;9.15;4.53;;;;;;;-16.11;62.98;98982.34;5052216;28;20059;-58
2022/01/13 04:40:57;;;;;;;8.43;3.83;;;;;;;-16.07;62.42;98977.91;5051033;28;20041;-59
2022/01/13 04:43:23;;;;;;;9.63;5.20;;;;;;;-16.03;62.56;98987.00;5051023;28;20060;-58
2022/01/13 04:45:49;;;;;;;11.63;4.55;;;;;;;-16.03;63.27;98981.91;5052527;28;20052;-58
2022/01/13 04:48:15;;;;;;;9.02;4.55;;;;;;;-16.00;63.18;98993.63;5052217;28;20064;-59
2022/01/13 04:50:41;;;;;;;9.70;4.95;;;;;;;-16.03;62.06;98987.00;5051985;28;20045;-64
2022/01/13 04:53:07;;;;;;;11.57;4.70;;;;;;;-16.15;61.81;98969.88;5050920;28;20574;-62
2022/01/13 04:55:35;;;;;;;15.05;5.93;;;;;;;-16.08;62.79;98983.91;5052036;28;20155;-62
2022/01/13 04:58:02;;;;;;;18.60;6.20;;;;;;;-15.99;62.82;98990.22;5050682;28;20041;-60
2022/01/13 05:00:29;;;;;;;10.68;4.72;;;;;;;-16.00;62.19;98984.28;5034190;28;20045;-61
2022/01/13 05:02:56;;;;;;;11.18;4.82;;;;;;;-16.10;61.99;98983.16;5051958;28;20053;-59
2022/01/13 05:05:22;;;;;;;16.60;6.40;;;;;;;-16.15;62.63;98975.75;5050610;28;20131;-60
2022/01/13 05:07:48;;;;;;;8.90;5.07;;;;;;;-16.17;63.11;98977.56;5052283;28;20081;-62
2022/01/13 05:10:14;;;;;;;11.45;4.63;;;;;;;-16.19;63.36;98979.38;5051579;28;20494;-62
2022/01/13 05:12:44;;;;;;;14.02;5.82;;;;;;;-16.21;61.81;98963.38;5051564;28;20041;-59
2022/01/13 05:15:16;;;;;;;18.05;7.07;;;;;;;-16.36;61.81;98948.97;5051756;28;20483;-59
2022/01/13 05:20:22;;;;;;;11.35;5.20;;;;;;;-16.50;63.87;98919.22;5050306;28;20408;-59
2022/01/13 05:22:48;;;;;;;12.25;5.32;;;;;;;-16.42;63.07;98912.03;5050176;28;20132;-59
2022/01/13 05:25:15;;;;;;;22.38;7.07;;;;;;;-16.31;63.08;98907.22;5049918;28;20037;-60
2022/01/13 05:27:41;;;;;;;16.08;6.18;;;;;;;-16.34;62.78;98899.78;5061386;28;20047;-58
2022/01/13 05:30:09;;;;;;;7.93;4.05;;;;;;;-16.37;63.03;98894.03;5079243;28;20127;-59
2022/01/13 05:32:35;;;;;;;13.05;5.82;;;;;;;-16.38;62.76;98880.53;5091939;28;20244;-59
2022/01/13 05:35:01;;;;;;;11.40;6.95;;;;;;;-16.46;62.71;98884.38;5089845;28;20036;-59
2022/01/13 05:37:27;;;;;;;10.07;4.80;;;;;;;-16.50;63.41;98878.63;5073206;28;20054;-61
2022/01/13 05:39:53;;;;;;;16.05;6.15;;;;;;;-16.68;63.43;98870.25;5090121;28;20040;-60
2022/01/13 05:42:19;;;;;;;21.90;6.63;;;;;;;-16.64;64.39;98869.22;5073353;28;20055;-60
2022/01/13 05:44:45;;;;;;;10.65;5.30;;;;;;;-16.75;63.79;98857.06;5086924;28;20067;-58
2022/01/13 05:47:12;;;;;;;14.07;5.80;;;;;;;-16.60;63.78;98867.34;5071047;28;20048;-59
2022/01/13 05:49:41;;;;;;;11.73;5.55;;;;;;;-16.73;64.79;98867.16;5090358;28;20040;-60
2022/01/13 05:52:11;;;;;;;11.13;5.65;;;;;;;-16.67;63.54;98886.28;5091489;28;20048;-61
2022/01/13 05:54:37;;;;;;;14.73;5.97;;;;;;;-16.60;63.68;98878.28;5091117;28;20130;-59
2022/01/13 05:57:03;;;;;;;11.10;4.15;;;;;;;-16.58;64.12;98873.97;5090657;28;20079;-59
2022/01/13 05:59:29;;;;;;;11.07;4.28;;;;;;;-16.52;63.94;98888.88;5067506;28;20075;-59
2022/01/13 06:01:56;;;;;;;8.00;4.30;;;;;;;-16.58;63.74;98873.97;5067573;28;20430;-60
2022/01/13 06:04:22;;;;;;;16.55;4.82;;;;;;;-16.62;63.48;98862.31;5069438;28;20093;-61
2022/01/13 06:06:48;;;;;;;13.38;5.32;;;;;;;-16.58;63.69;98863.00;5042825;28;20036;-59
2022/01/13 06:09:13;;;;;;;9.38;4.65;;;;;;;-16.54;63.29;98845.00;5073774;28;20412;-59
2022/01/13 06:11:56;;;;;;;13.73;5.88;;;;;;;-16.58;63.58;98815.63;5073498;28;20048;-60
2022/01/13 06:14:21;;;;;;;12.85;5.10;;;;;;;-16.57;64.18;98806.28;5068437;28;20045;-59
2022/01/13 06:16:47;;;;;;;8.07;5.05;;;;;;;-16.67;63.97;98810.19;5059022;28;20045;-60
2022/01/13 06:19:13;;;;;;;12.38;5.50;;;;;;;-16.58;64.64;98789.44;5053262;28;20049;-59
2022/01/13 06:21:39;;;;;;;7.07;3.92;;;;;;;-16.41;64.76;98786.84;5074926;28;20557;-60
2022/01/13 06:24:05;;;;;;;10.48;4.63;;;;;;;-16.48;63.28;98786.31;5071697;28;20040;-59
2022/01/13 06:26:31;;;;;;;12.30;5.47;;;;;;;-16.34;63.83;98770.38;5068681;28;20063;-59
2022/01/13 06:28:57;;;;;;;15.00;5.22;;;;;;;-16.13;64.09;98787.84;5090405;28;20075;-59
2022/01/13 06:31:23;;;;;;;17.73;4.78;;;;;;;-16.02;63.40;98782.19;5074551;28;20055;-57
2022/01/13 06:33:48;;;;;;;10.30;5.25;;;;;;;-16.12;62.22;98766.63;5073593;28;20161;-59
2022/01/13 06:36:15;;;;;;;13.20;5.45;;;;;;;-16.03;62.93;98753.44;5072401;28;20059;-60
2022/01/13 06:38:42;;;;;;;11.70;4.90;;;;;;;-16.01;62.75;98740.66;5071454;28;20474;-62
2022/01/13 06:41:09;;;;;;;11.65;5.18;;;;;;;-16.16;63.76;98738.06;5072774;28;20036;-62
2022/01/13 06:43:35;;;;;;;12.10;4.82;;;;;;;-16.18;63.40;98729.72;5089738;28;20040;-62
2022/01/13 06:46:01;;;;;;;21.52;6.45;;;;;;;-16.30;64.23;98717.72;5072669;28;20048;-60
2022/01/13 06:48:27;;;;;;;12.65;5.25;;;;;;;-16.21;63.65;98724.81;5034655;28;20525;-60
2022/01/13 06:50:53;;;;;;;14.95;5.63;;;;;;;-16.17;64.51;98733.91;5056382;28;20045;-60
2022/01/13 06:53:20;;;;;;;10.35;5.35;;;;;;;-16.00;64.58;98727.06;5053463;28;20052;-62
2022/01/13 06:55:46;;;;;;;11.15;4.32;;;;;;;-15.98;64.71;98732.88;5055216;28;20132;-59
2022/01/13 06:58:12;;;;;;;13.75;5.80;;;;;;;-15.89;63.65;98717.91;5052841;28;20506;-60
2022/01/13 07:00:38;;;;;;;17.10;6.38;;;;;;;-15.85;63.74;98723.63;5055956;28;20043;-59
2022/01/13 07:03:04;;;;;;;12.25;6.82;;;;;;;-15.84;64.07;98717.66;5075244;28;20509;-60
2022/01/13 07:05:30;;;;;;;13.50;6.15;;;;;;;-15.75;63.42;98714.59;5070479;28;20052;-63
2022/01/13 07:07:56;;;;;;;10.85;6.05;;;;;;;-15.72;63.50;98716.97;5076936;28;20052;-60
2022/01/13 07:10:22;;;;;;;8.18;5.68;;;;;;;-15.51;63.46;98694.53;5071075;28;20394;-63
2022/01/13 07:12:48;;;;;;;10.55;5.05;;;;;;;-15.43;62.91;98697.44;5074646;28;20048;-61
2022/01/13 07:15:14;;;;;;;10.55;5.10;;;;;;;-15.28;62.62;98688.09;5069790;28;20089;-62
2022/01/13 07:17:40;;;;;;;7.00;4.80;;;;;;;-15.29;62.72;98666.13;5068387;28;20048;-60
2022/01/13 07:20:07;;;;;;;8.38;5.05;;;;;;;-15.14;62.09;98683.00;5055130;28;20625;-59
2022/01/13 07:22:32;;;;;;;14.10;5.72;;;;;;;-14.98;61.83;98676.97;5055039;28;20076;-60
2022/01/13 07:24:58;;;;;;;17.08;5.30;;;;;;;-14.77;60.47;98680.72;5054366;28;20326;-61
2022/01/13 07:27:24;;;;;;;13.27;5.57;;;;;;;-14.53;60.38;98669.91;5066204;28;20037;-60
2022/01/13 07:29:50;;;;;;;13.27;5.82;;;;;;;-14.31;59.88;98666.81;5049919;28;20132;-60
2022/01/13 07:32:15;;;;;;;13.70;5.20;;;;;;;-14.11;59.96;98666.34;5048904;28;20060;-61
2022/01/13 07:34:42;;;;;;;15.15;6.10;;;;;;;-13.88;58.46;98672.47;5046883;28;20132;-59
2022/01/13 07:37:08;;;;;;;10.10;4.40;;;;;;;-13.82;58.03;98654.25;5050461;28;20079;-59
2022/01/13 07:39:38;;;;;;;11.07;5.60;;;;;;;-14.00;56.81;98645.25;5050127;28;20037;-60
2022/01/13 07:42:04;;;;;;;12.52;5.63;;;;;;;-14.08;57.04;98630.47;5032854;28;20064;-60
2022/01/13 07:44:31;;;;;;;11.57;4.90;;;;;;;-14.25;58.36;98620.56;5049979;28;20095;-59
2022/01/13 07:46:58;;;;;;;12.43;5.50;;;;;;;-14.07;59.09;98619.38;5033218;28;20118;-60
2022/01/13 07:49:24;;;;;;;12.52;5.88;;;;;;;-14.03;58.78;98630.16;5049995;28;20446;-59
2022/01/13 07:51:50;;;;;;;12.07;5.32;;;;;;;-13.87;58.10;98618.06;5048890;28;20624;-61
2022/01/13 07:54:16;;;;;;;12.85;5.00;;;;;;;-13.84;58.50;98594.09;5049325;28;20045;-61
2022/01/13 07:56:42;;;;;;;12.77;4.65;;;;;;;-13.84;58.75;98594.91;5031745;28;20037;-61
2022/01/13 07:59:08;;;;;;;12.85;6.20;;;;;;;-13.77;58.65;98578.28;5058225;28;20060;-62
2022/01/13 08:01:34;;;;;;;9.27;5.18;;;;;;;-13.97;58.78;98561.81;5071182;28;20043;-59
2022/01/13 08:03:59;;;;;;;12.18;5.72;;;;;;;-13.88;58.77;98546.81;5085091;28;20039;-60
2022/01/13 08:06:25;;;;;;;12.20;5.55;;;;;;;-13.62;59.19;98537.38;5071650;28;20035;-61
2022/01/13 08:08:51;;;;;;;15.98;6.28;;;;;;;-13.48;58.45;98534.69;5079364;28;20118;-60
2022/01/13 08:11:17;;;;;;;12.07;5.22;;;;;;;-13.39;58.65;98525.59;5047387;28;20047;-59
2022/01/13 08:13:44;;;;;;;9.68;5.07;;;;;;;-13.51;57.31;98506.88;5068460;28;20044;-59
2022/01/13 08:16:10;;;;;;;13.80;6.15;;;;;;;-13.54;57.91;98497.69;5068951;28;20048;-62
2022/01/13 08:21:23;;;;;;;10.40;5.15;;;;;;;-13.17;57.70;98479.78;5052090;28;20045;-61
2022/01/13 08:23:50;;;;;;;12.90;5.70;;;;;;;-13.10;58.87;98472.50;5069124;28;20502;-60
2022/01/13 08:26:17;;;;;;;13.40;6.18;;;;;;;-12.99;57.18;98457.22;5074597;28;20563;-62
2022/01/13 08:28:43;;;;;;;12.23;5.35;;;;;;;-12.94;58.11;98454.34;5071068;28;20045;-56
2022/01/13 08:31:09;;;;;;;11.55;5.72;;;;;;;-12.65;57.90;98465.75;5067363;28;20528;-59
2022/01/13 08:33:35;;;;;;;8.95;4.30;;;;;;;-12.59;57.55;98459.38;5064715;28;20043;-62
2022/01/13 08:36:02;;;;;;;12.77;5.68;;;;;;;-12.49;58.28;98428.91;5061166;28;20123;-59
2022/01/13 08:38:28;;;;;;;14.82;5.82;;;;;;;-12.33;58.37;98414.03;5060735;28;20043;-56
2022/01/13 08:40:57;;;;;;;16.02;6.00;;;;;;;-12.29;57.68;98410.34;5057482;28;20029;-56
2022/01/13 08:43:24;;;;;;;16.65;6.50;;;;;;;-12.08;56.49;98400.19;5053465;28;20049;-58
2022/01/13 08:45:50;;;;;;;12.43;5.25;;;;;;;-12.01;56.54;98397.97;5049398;28;20040;-56
2022/01/13 08:48:17;;;;;;;12.02;5.10;;;;;;;-12.11;55.48;98391.97;5066882;28;20103;-57
2022/01/13 08:50:43;;;;;;;13.15;5.82;;;;;;;-11.97;56.26;98394.25;5069235;28;20496;-58
2022/01/13 08:53:09;;;;;;;11.85;5.25;;;;;;;-11.89;56.00;98394.47;5053687;28;20037;-57
2022/01/13 08:55:35;;;;;;;12.20;5.20;;;;;;;-11.89;54.43;98381.69;5049321;28;20044;-58
2022/01/13 08:58:00;;;;;;;10.20;4.38;;;;;;;-11.80;55.88;98375.00;5055424;28;20044;-60
2022/01/13 09:00:26;;;;;;;12.45;5.38;;;;;;;-11.50;55.56;98353.84;5069164;28;20101;-57
2022/01/13 09:02:52;;;;;;;7.60;4.53;;;;;;;-11.53;53.43;98333.66;5067522;28;20087;-60
2022/01/13 09:05:20;;;;;;;9.32;4.35;;;;;;;-11.67;54.62;98330.47;5067523;28;20040;-57
2022/01/13 09:07:46;;;;;;;15.30;6.35;;;;;;;-11.69;54.25;98322.09;5067060;28;20124;-57
2022/01/13 09:10:13;;;;;;;10.93;5.55;;;;;;;-11.69;55.26;98306.75;5047477;28;20471;-63
2022/01/13 09:12:39;;;;;;;13.48;5.97;;;;;;;-11.74;55.96;98303.75;5055240;28;20080;-60
2022/01/13 09:15:18;;;;;;;13.73;5.38;;;;;;;-11.84;55.72;98310.53;5063639;28;20086;-56
2022/01/13 09:17:51;;;;;;;13.75;4.60;;;;;;;-11.64;56.55;98291.06;5080486;28;20534;-57
2022/01/13 09:20:17;;;;;;;9.52;4.50;;;;;;;-11.60;55.22;98312.88;5068242;28;20501;-58
2022/01/13 09:22:44;;;;;;;10.30;5.05;;;;;;;-11.39;55.51;98325.66;5085521;28;20527;-58
2022/01/13 09:25:13;;;;;;;9.32;4.32;;;;;;;-11.57;54.89;98319.50;5083338;28;20566;-59
2022/01/13 09:27:40;;;;;;;12.00;5.53;;;;;;;-11.55;55.79;98331.22;5068015;28;20049;-58
2022/01/13 09:30:08;;;;;;;10.02;4.55;;;;;;;-11.38;54.67;98303.44;5027866;28;20064;-59
2022/01/13 09:32:36;;;;;;;10.32;5.32;;;;;;;-11.42;53.99;98295.22;5037081;28;20509;-55
2022/01/13 09:35:04;;;;;;;6.70;3.95;;;;;;;-11.31;54.64;98271.34;5048456;28;20498;-58
2022/01/13 09:37:30;;;;;;;12.15;5.03;;;;;;;-11.23;54.41;98256.97;5047422;28;20061;-56
2022/01/13 09:39:56;;;;;;;14.57;6.72;;;;;;;-11.36;54.16;98263.22;5030074;28;20232;-59
2022/01/13 09:42:24;;;;;;;9.65;4.63;;;;;;;-11.45;55.53;98263.03;5046504;28;20522;-57
2022/01/13 09:44:50;;;;;;;10.43;4.50;;;;;;;-11.20;56.13;98243.13;5046786;28;20048;-57
2022/01/13 09:47:15;;;;;;;9.18;4.75;;;;;;;-11.16;54.31;98241.91;5047257;28;20499;-58
2022/01/13 09:49:44;;;;;;;11.30;4.50;;;;;;;-11.22;53.88;98225.31;5046236;28;20041;-58
2022/01/13 09:52:10;;;;;;;6.82;4.10;;;;;;;-11.13;54.82;98202.47;5048612;28;20113;-58
2022/01/13 09:54:36;;;;;;;8.73;4.25;;;;;;;-11.03;54.22;98209.25;5044653;28;20506;-61
2022/01/13 09:57:02;;;;;;;10.55;4.57;;;;;;;-10.88;54.51;98211.44;5047423;28;20098;-56
2022/01/13 09:59:28;;;;;;;8.15;4.32;;;;;;;-10.98;54.95;98196.06;5048038;28;20099;-57
2022/01/13 10:01:53;;;;;;;11.38;5.43;;;;;;;-10.88;55.58;98201.19;5045953;28;20048;-56
2022/01/13 10:04:19;;;;;;;12.02;4.55;;;;;;;-10.78;54.34;98186.69;5047987;28;20103;-58
2022/01/13 10:06:47;;;;;;;11.80;4.57;;;;;;;-10.74;55.15;98188.03;5013672;28;20045;-58
2022/01/13 10:09:14;;;;;;;13.23;5.40;;;;;;;-10.90;54.95;98168.06;5030463;28;20067;-59
2022/01/13 10:11:54;;;;;;;5.63;3.35;;;;;;;-10.84;55.22;98149.63;5046383;28;20060;-60
2022/01/13 10:17:02;;;;;;;13.75;4.78;;;;;;;-10.81;55.11;98103.25;5031325;28;20299;-57
2022/01/13 10:19:33;;;;;;;8.15;4.50;;;;;;;-10.71;56.63;98087.09;5055871;28;20119;-57
2022/01/13 10:22:02;;;;;;;10.38;4.60;;;;;;;-10.68;57.22;98079.16;5069599;28;20063;-58
2022/01/13 10:24:29;;;;;;;8.52;4.28;;;;;;;-10.56;56.64;98066.09;5033681;28;20071;-57
2022/01/13 10:26:59;;;;;;;10.68;4.60;;;;;;;-10.55;58.06;98044.63;5035257;28;20630;-59
2022/01/13 10:29:37;;;;;;;5.88;4.10;;;;;;;-10.49;57.37;98034.81;5062209;28;20048;-58
2022/01/13 10:32:03;;;;;;;8.50;4.30;;;;;;;-10.49;58.30;98030.47;5046306;28;20048;-59
2022/01/13 10:34:29;;;;;;;14.10;4.63;;;;;;;-10.51;57.76;98022.13;5048053;28;20460;-56
2022/01/13 10:37:07;;;;;;;6.80;3.63;;;;;;;-10.60;58.74;97999.91;5049442;28;20052;-54
2022/01/13 10:39:52;;;;;;;12.40;5.07;;;;;;;-10.54;59.38;97996.78;5048005;28;20045;-58
2022/01/13 10:45:12;;;;;;;11.73;3.88;;;;;;;-10.40;59.60;97992.97;5052905;28;20041;-57
2022/01/13 10:47:47;;;;;;;13.45;5.03;;;;;;;-10.39;60.48;97981.78;5033598;28;20045;-54
2022/01/13 10:50:19;;;;;;;12.80;4.88;;;;;;;-10.47;60.94;97976.53;5003075;28;20068;-57
2022/01/13 10:52:45;;;;;;;7.30;4.40;;;;;;;-10.65;61.51;97890.19;5051762;28;20525;-57
2022/01/13 10:55:20;;;;;;;7.07;3.35;;;;;;;-10.48;61.87;97918.59;5050736;28;20311;-56
2022/01/13 10:57:47;;;;;;;12.23;5.57;;;;;;;-10.43;62.09;97911.28;5051606;28;20045;-61
2022/01/13 11:00:16;;;;;;;9.90;4.80;;;;;;;-10.61;63.82;97888.19;5050140;28;20037;-59
2022/01/13 11:02:44;;;;;;;7.45;4.25;;;;;;;-10.53;63.94;97862.66;5051255;28;20040;-56
2022/01/13 11:05:10;;;;;;;7.97;4.38;;;;;;;-10.27;64.21;97862.00;5051739;28;20076;-58
2022/01/13 11:07:37;;;;;;;8.57;4.47;;;;;;;-10.55;63.91;97846.63;5018110;28;20045;-60
2022/01/13 11:10:06;;;;;;;8.63;4.20;;;;;;;-10.55;64.36;97832.06;5053967;28;20497;-59
2022/01/13 11:12:44;;;;;;;6.57;4.28;;;;;;;-10.57;65.14;97836.53;5068801;28;20517;-58
2022/01/13 11:15:16;;;;;;;6.85;4.20;;;;;;;-10.36;65.00;97832.91;5068117;28;20085;-59
2022/01/13 11:17:44;;;;;;;7.75;4.25;;;;;;;-10.24;64.55;97811.22;5067663;28;20059;-57
2022/01/13 11:20:14;;;;;;;9.45;4.60;;;;;;;-10.18;65.24;97791.91;5066478;28;20044;-58
2022/01/13 11:22:45;;;;;;;9.13;3.88;;;;;;;-10.02;64.93;97779.28;5063069;28;20041;-58
2022/01/13 11:25:13;;;;;;;9.32;3.63;;;;;;;-10.06;64.26;97765.13;5050785;28;20041;-59
2022/01/13 11:27:40;;;;;;;10.55;4.57;;;;;;;-9.92;65.24;97762.03;5062366;28;20109;-57
2022/01/13 11:30:13;;;;;;;9.25;4.47;;;;;;;-10.03;64.56;97743.53;5072001;28;20147;-55
2022/01/13 11:32:44;;;;;;;8.50;4.65;;;;;;;-9.86;65.45;97756.31;5014095;28;20056;-59
2022/01/13 11:35:11;;;;;;;10.55;4.15;;;;;;;-9.72;64.26;97759.31;5066554;28;20151;-57
2022/01/13 11:37:40;;;;;;;7.90;3.60;;;;;;;-9.79;64.35;97754.00;5066076;28;20106;-59
2022/01/13 11:40:08;;;;;;;10.18;4.30;;;;;;;-9.68;64.58;97720.38;5071440;28;20044;-59
2022/01/13 11:42:46;;;;;;;9.55;4.40;;;;;;;-9.56;65.02;97704.75;5058370;28;20045;-59
2022/01/13 11:45:15;;;;;;;10.85;4.20;;;;;;;-9.66;64.88;97681.78;5050452;28;20115;-59
2022/01/13 11:47:41;;;;;;;7.18;4.28;;;;;;;-9.64;66.30;97679.88;5052390;28;20131;-58
2022/01/13 11:50:21;;;;;;;10.65;4.63;;;;;;;-9.48;65.64;97685.09;5034270;28;20047;-58
2022/01/13 11:52:52;;;;;;;10.13;4.68;;;;;;;-9.58;64.79;97673.34;5048176;28;20041;-58